Time;durP1;ratioP1;P1;durP2;ratioP2;P2;SDS_P1;SDS_P2;PMS_P1;PMS_P2;Temp;Humidity;BMP_temperature;BMP_pressure;BME280_temperature;BME280_humidity;BME280_pressure;Samples;Min_cycle;Max_cycle;Signal;HPM_P1;HPM_P2
2021/03/23 00:00:46;;;;;;;39.13;23.83;;;1.30;99.90;;;;;;5051073;28;20246;-76
2021/03/23 00:03:15;;;;;;;41.10;24.37;;;1.20;99.90;;;;;;5051867;28;20203;-76
2021/03/23 00:05:43;;;;;;;45.50;25.90;;;1.20;99.90;;;;;;5050903;28;20207;-76
2021/03/23 00:08:28;;;;;;;42.23;23.67;;;1.20;99.90;;;;;;5050817;28;20605;-76
2021/03/23 00:10:56;;;;;;;35.77;22.80;;;1.10;99.90;;;;;;5051121;28;20242;-76
2021/03/23 00:13:23;;;;;;;36.33;20.73;;;1.10;99.90;;;;;;5051019;28;20293;-76
2021/03/23 00:15:50;;;;;;;35.70;21.47;;;1.10;99.90;;;;;;5047579;28;20285;-76
2021/03/23 00:18:17;;;;;;;35.30;20.67;;;1.10;99.90;;;;;;5044449;28;20231;-76
2021/03/23 00:20:45;;;;;;;39.83;21.67;;;1.10;99.90;;;;;;5051111;28;20241;-77
2021/03/23 00:23:12;;;;;;;40.87;23.83;;;1.00;99.90;;;;;;5050883;28;20272;-76
2021/03/23 00:25:39;;;;;;;47.10;26.30;;;1.10;99.90;;;;;;5014216;28;20246;-76
2021/03/23 00:28:06;;;;;;;48.43;26.67;;;1.00;99.90;;;;;;5044583;28;20197;-76
2021/03/23 00:30:33;;;;;;;50.57;30.07;;;1.00;99.90;;;;;;5051052;28;20672;-77
2021/03/23 00:32:59;;;;;;;55.60;30.13;;;0.90;99.90;;;;;;5041060;28;20199;-76
2021/03/23 00:35:26;;;;;;;50.77;29.30;;;1.00;99.90;;;;;;5044556;28;20236;-76
2021/03/23 00:37:55;;;;;;;48.73;27.73;;;1.00;99.90;;;;;;5051085;28;20233;-76
2021/03/23 00:40:25;;;;;;;39.87;23.57;;;0.90;99.90;;;;;;5014170;28;20728;-76
2021/03/23 00:42:52;;;;;;;33.30;21.70;;;1.00;99.90;;;;;;5048669;28;20269;-76
2021/03/23 00:45:19;;;;;;;35.37;20.13;;;0.90;99.90;;;;;;5050288;28;20250;-76
2021/03/23 00:47:46;;;;;;;28.57;19.03;;;0.80;99.90;;;;;;5034241;28;20297;-76
2021/03/23 00:50:13;;;;;;;29.63;18.47;;;0.80;99.90;;;;;;5035141;28;20207;-76
2021/03/23 00:52:40;;;;;;;29.07;18.40;;;0.80;99.90;;;;;;5051837;28;20232;-76
2021/03/23 00:55:09;;;;;;;32.00;18.47;;;0.80;99.90;;;;;;5055292;28;20269;-76
2021/03/23 00:57:36;;;;;;;29.57;18.20;;;0.70;99.90;;;;;;5029681;28;20227;-76
2021/03/23 01:00:05;;;;;;;27.80;17.30;;;0.70;99.90;;;;;;5049000;28;20196;-76
2021/03/23 01:02:32;;;;;;;24.93;16.40;;;0.70;99.90;;;;;;5042548;28;20787;-76
2021/03/23 01:04:58;;;;;;;25.80;16.57;;;0.70;99.90;;;;;;5054228;28;20245;-76
2021/03/23 01:07:25;;;;;;;25.33;16.53;;;0.60;99.90;;;;;;5053382;28;20296;-76
2021/03/23 01:09:51;;;;;;;27.83;16.07;;;0.60;99.90;;;;;;5055069;28;20914;-77
2021/03/23 01:12:18;;;;;;;25.13;15.87;;;0.60;99.90;;;;;;5043897;28;20260;-77
2021/03/23 01:14:45;;;;;;;27.10;16.33;;;0.60;99.90;;;;;;5034893;28;20236;-77
2021/03/23 01:17:11;;;;;;;25.80;16.20;;;0.60;99.90;;;;;;5040626;28;20276;-76
2021/03/23 01:19:38;;;;;;;27.77;16.40;;;0.60;99.90;;;;;;5054209;28;20236;-76
2021/03/23 01:22:06;;;;;;;30.57;17.70;;;0.60;99.90;;;;;;5052016;28;20657;-76
2021/03/23 01:24:32;;;;;;;29.50;18.07;;;0.70;99.90;;;;;;5051409;28;20681;-76
2021/03/23 01:27:00;;;;;;;26.07;17.60;;;0.80;99.90;;;;;;5053976;28;20253;-76
2021/03/23 01:29:27;;;;;;;28.87;17.80;;;0.70;99.90;;;;;;5045603;28;20205;-76
2021/03/23 01:31:54;;;;;;;29.23;17.97;;;0.60;99.90;;;;;;5054043;28;20204;-76
2021/03/23 01:34:20;;;;;;;29.97;17.27;;;0.70;99.90;;;;;;5054779;28;20239;-76
2021/03/23 01:36:47;;;;;;;29.70;18.37;;;0.60;99.90;;;;;;5053098;28;20262;-76
2021/03/23 01:39:13;;;;;;;27.67;17.10;;;0.50;99.90;;;;;;5053923;28;20229;-76
2021/03/23 01:41:39;;;;;;;28.83;16.97;;;0.60;99.90;;;;;;5053964;28;20323;-76
2021/03/23 01:44:06;;;;;;;28.50;18.80;;;0.60;99.90;;;;;;5053954;28;20237;-76
2021/03/23 01:46:49;;;;;;;29.67;18.00;;;0.50;99.90;;;;;;5053600;28;20238;-76
2021/03/23 01:49:19;;;;;;;30.70;17.27;;;0.50;99.90;;;;;;5051604;28;20231;-76
2021/03/23 01:51:49;;;;;;;27.13;17.37;;;0.40;99.90;;;;;;5035753;28;20859;-76
2021/03/23 01:54:19;;;;;;;27.27;16.70;;;0.40;99.90;;;;;;5053655;28;20575;-76
2021/03/23 01:56:46;;;;;;;31.57;17.30;;;0.40;99.90;;;;;;5052834;28;20232;-76
2021/03/23 01:59:14;;;;;;;26.20;16.50;;;0.40;99.90;;;;;;5052844;28;20283;-76
2021/03/23 02:01:41;;;;;;;28.57;17.20;;;0.30;99.90;;;;;;5036076;28;20278;-76
2021/03/23 02:04:08;;;;;;;26.60;17.10;;;0.30;99.90;;;;;;5040109;28;20203;-77
2021/03/23 02:06:40;;;;;;;25.40;16.07;;;0.30;99.90;;;;;;5047225;28;20215;-77
2021/03/23 02:09:09;;;;;;;26.30;17.10;;;0.20;99.90;;;;;;5050877;28;20297;-76
2021/03/23 02:11:51;;;;;;;26.40;16.57;;;0.20;99.90;;;;;;5053576;28;20200;-76
2021/03/23 02:14:20;;;;;;;27.27;17.13;;;0.10;99.90;;;;;;5052760;28;20208;-76
2021/03/23 02:16:47;;;;;;;27.67;15.83;;;0.10;99.90;;;;;;5033827;28;20223;-77
2021/03/23 02:19:17;;;;;;;25.80;16.10;;;0.10;99.90;;;;;;5036755;28;20236;-76
2021/03/23 02:21:44;;;;;;;29.37;17.00;;;0.10;99.90;;;;;;5052575;28;20322;-76
2021/03/23 02:24:14;;;;;;;28.93;17.90;;;0.10;99.90;;;;;;5035507;28;20557;-76
2021/03/23 02:26:41;;;;;;;26.90;16.83;;;0.00;99.90;;;;;;5047851;28;20256;-76
2021/03/23 02:29:10;;;;;;;28.03;17.50;;;0.10;99.90;;;;;;5053024;28;20231;-76
2021/03/23 02:31:39;;;;;;;25.73;16.10;;;0.00;99.90;;;;;;5052701;28;20227;-76
2021/03/23 02:34:08;;;;;;;27.53;16.93;;;0.00;99.90;;;;;;5052012;28;20227;-76
2021/03/23 02:36:37;;;;;;;24.07;15.37;;;-0.10;99.90;;;;;;5052952;28;20211;-76
2021/03/23 02:39:06;;;;;;;28.73;16.47;;;-0.10;99.90;;;;;;5052351;28;20211;-76
2021/03/23 02:41:32;;;;;;;23.63;15.37;;;-0.10;99.90;;;;;;5035098;28;20909;-76
2021/03/23 02:43:59;;;;;;;25.73;16.03;;;-0.10;99.90;;;;;;5050320;28;20255;-76
2021/03/23 02:46:25;;;;;;;30.17;16.37;;;-0.10;99.90;;;;;;5034621;28;20228;-76
2021/03/23 02:48:52;;;;;;;25.43;15.90;;;-0.10;99.90;;;;;;5036878;28;20243;-76
2021/03/23 02:51:19;;;;;;;26.80;16.17;;;-0.10;99.90;;;;;;5052410;28;20196;-76
2021/03/23 02:53:47;;;;;;;29.23;16.90;;;-0.10;99.90;;;;;;5052873;28;20248;-76
2021/03/23 02:56:15;;;;;;;29.20;17.70;;;-0.10;99.90;;;;;;5052807;28;20236;-76
2021/03/23 02:58:42;;;;;;;26.17;17.03;;;-0.10;99.90;;;;;;5052970;28;20254;-75
2021/03/23 03:01:10;;;;;;;29.80;17.50;;;-0.20;99.90;;;;;;5052137;28;20687;-76
2021/03/23 03:03:37;;;;;;;28.00;18.00;;;-0.20;99.90;;;;;;5034309;28;20248;-76
2021/03/23 03:06:04;;;;;;;28.40;17.13;;;-0.30;99.90;;;;;;5035308;28;20235;-76
2021/03/23 03:08:31;;;;;;;30.40;17.37;;;-0.30;99.90;;;;;;5032550;28;20293;-76
2021/03/23 03:10:57;;;;;;;27.37;17.20;;;-0.30;99.90;;;;;;5031857;28;20205;-75
2021/03/23 03:13:25;;;;;;;28.00;16.50;;;-0.30;99.90;;;;;;5033327;28;20636;-76
2021/03/23 03:15:54;;;;;;;29.83;17.23;;;-0.30;99.90;;;;;;5049229;28;20243;-76
2021/03/23 03:18:21;;;;;;;26.03;16.37;;;-0.30;99.90;;;;;;5051810;28;20259;-76
2021/03/23 03:20:48;;;;;;;28.50;16.37;;;-0.30;99.90;;;;;;5033741;28;20703;-76
2021/03/23 03:23:16;;;;;;;23.53;15.50;;;-0.30;99.90;;;;;;5032461;28;20319;-76
2021/03/23 03:25:43;;;;;;;26.70;16.53;;;-0.30;99.90;;;;;;5050796;28;20223;-76
2021/03/23 03:28:09;;;;;;;26.63;16.17;;;-0.30;99.90;;;;;;5044253;28;20612;-76
2021/03/23 03:30:38;;;;;;;25.47;16.13;;;-0.30;99.90;;;;;;5051377;28;20237;-76
2021/03/23 03:33:06;;;;;;;25.50;16.43;;;-0.30;99.90;;;;;;5051568;28;20196;-75
2021/03/23 03:35:35;;;;;;;28.97;16.50;;;-0.30;99.90;;;;;;5044166;28;20227;-76
2021/03/23 03:38:02;;;;;;;25.97;16.13;;;-0.30;99.90;;;;;;5050459;28;20692;-76
2021/03/23 03:40:31;;;;;;;24.67;15.00;;;-0.40;99.90;;;;;;5050578;28;20615;-76
2021/03/23 03:42:58;;;;;;;26.60;15.67;;;-0.40;99.90;;;;;;5051064;28;20259;-75
2021/03/23 03:45:25;;;;;;;26.93;16.60;;;-0.50;99.90;;;;;;5051660;28;20235;-76
2021/03/23 03:47:53;;;;;;;23.43;15.77;;;-0.50;99.90;;;;;;5041819;28;20244;-76
2021/03/23 03:50:20;;;;;;;28.33;15.83;;;-0.50;99.90;;;;;;5032075;28;20236;-76
2021/03/23 03:52:47;;;;;;;26.80;15.20;;;-0.60;99.90;;;;;;5049047;28;20314;-76
2021/03/23 03:55:15;;;;;;;25.27;15.90;;;-0.60;99.90;;;;;;5051877;28;20239;-76
2021/03/23 03:57:42;;;;;;;23.10;15.00;;;-0.60;99.90;;;;;;5051946;28;20235;-76
2021/03/23 04:00:11;;;;;;;24.53;15.20;;;-0.70;99.90;;;;;;5050592;28;20231;-76
2021/03/23 04:02:37;;;;;;;28.13;16.87;;;-0.70;99.90;;;;;;5051616;28;20266;-76
2021/03/23 04:05:06;;;;;;;27.03;16.70;;;-0.70;99.90;;;;;;5051514;28;20239;-75
2021/03/23 04:07:32;;;;;;;31.30;18.43;;;-0.70;99.90;;;;;;5039229;28;20247;-76
2021/03/23 04:09:59;;;;;;;24.70;16.60;;;-0.60;99.90;;;;;;5031574;28;20738;-76
2021/03/23 04:12:25;;;;;;;27.10;16.17;;;-0.60;99.90;;;;;;5032573;28;20235;-76
2021/03/23 04:14:51;;;;;;;24.97;16.07;;;-0.70;99.90;;;;;;5035451;28;20692;-76
2021/03/23 04:17:18;;;;;;;25.90;16.07;;;-0.70;99.90;;;;;;5041299;28;20252;-76
2021/03/23 04:19:44;;;;;;;25.50;15.33;;;-0.70;99.90;;;;;;5049164;28;20240;-76
2021/03/23 04:22:11;;;;;;;27.23;15.70;;;-0.80;99.90;;;;;;5051322;28;20263;-75
2021/03/23 04:24:38;;;;;;;28.93;16.53;;;-0.80;99.90;;;;;;5054849;28;20235;-76
2021/03/23 04:27:05;;;;;;;26.10;16.20;;;-0.70;99.90;;;;;;5045127;28;20629;-76
2021/03/23 04:29:31;;;;;;;27.97;17.17;;;-0.70;99.90;;;;;;5049995;28;20611;-76
2021/03/23 04:31:58;;;;;;;25.20;16.03;;;-0.80;99.90;;;;;;5055546;28;20234;-76
2021/03/23 04:34:24;;;;;;;28.23;16.53;;;-0.80;99.90;;;;;;5055588;28;20235;-76
2021/03/23 04:36:50;;;;;;;30.17;16.57;;;-0.80;99.90;;;;;;5051093;28;20228;-76
2021/03/23 04:39:18;;;;;;;28.47;16.47;;;-0.80;99.90;;;;;;5042655;28;20240;-77
2021/03/23 04:41:44;;;;;;;25.90;16.53;;;-0.80;99.90;;;;;;5047045;28;20263;-76
2021/03/23 04:44:10;;;;;;;28.53;16.50;;;-0.70;99.90;;;;;;5054399;28;20230;-76
2021/03/23 04:46:37;;;;;;;26.33;16.53;;;-0.70;99.90;;;;;;5042412;28;20227;-76
2021/03/23 04:49:04;;;;;;;29.87;18.10;;;-0.80;99.90;;;;;;5054602;28;20608;-76
2021/03/23 04:51:31;;;;;;;27.17;16.47;;;-0.80;99.90;;;;;;5054882;28;20231;-76
2021/03/23 04:53:59;;;;;;;25.57;16.57;;;-0.80;99.90;;;;;;5054767;28;20200;-75
2021/03/23 04:56:29;;;;;;;27.53;16.47;;;-0.80;99.90;;;;;;5055171;28;20204;-75
2021/03/23 04:58:55;;;;;;;28.20;16.33;;;-0.90;99.90;;;;;;5053753;28;20206;-76
2021/03/23 05:01:22;;;;;;;29.90;17.70;;;-0.80;99.90;;;;;;5054746;28;20195;-75
2021/03/23 05:03:54;;;;;;;27.83;16.63;;;-0.90;99.90;;;;;;5053097;28;20204;-75
2021/03/23 05:06:21;;;;;;;31.67;17.07;;;-0.90;99.90;;;;;;5034415;28;20224;-75
2021/03/23 05:08:48;;;;;;;25.53;16.77;;;-1.00;99.90;;;;;;5046654;28;20211;-75
2021/03/23 05:11:18;;;;;;;31.20;17.53;;;-0.80;99.90;;;;;;5042849;28;20680;-76
2021/03/23 05:13:46;;;;;;;28.63;17.43;;;-0.90;99.90;;;;;;5036962;28;20211;-75
2021/03/23 05:16:13;;;;;;;26.43;16.47;;;-0.90;99.90;;;;;;5034701;28;20235;-75
2021/03/23 05:18:40;;;;;;;29.80;16.93;;;-0.90;99.90;;;;;;5052199;28;20269;-75
2021/03/23 05:21:07;;;;;;;27.40;15.87;;;-0.90;99.90;;;;;;5048100;28;20232;-76
2021/03/23 05:23:34;;;;;;;28.53;17.47;;;-0.90;99.90;;;;;;5054108;28;20239;-75
2021/03/23 05:26:01;;;;;;;28.83;16.77;;;-0.90;99.90;;;;;;5050894;28;20228;-75
2021/03/23 05:28:27;;;;;;;31.50;17.43;;;-0.90;99.90;;;;;;5034135;28;20227;-75
2021/03/23 05:30:56;;;;;;;26.87;16.47;;;-0.90;99.90;;;;;;5034393;28;20204;-75
2021/03/23 05:33:24;;;;;;;27.23;17.10;;;-1.00;99.90;;;;;;5052411;28;20218;-75
2021/03/23 05:35:51;;;;;;;30.47;17.20;;;-1.00;99.90;;;;;;5053870;28;20309;-75
2021/03/23 05:38:18;;;;;;;28.63;17.07;;;-1.00;99.90;;;;;;5054078;28;20588;-75
2021/03/23 05:40:47;;;;;;;28.17;17.10;;;-1.00;99.90;;;;;;5053517;28;20222;-75
2021/03/23 05:43:32;;;;;;;27.20;16.37;;;-1.10;99.90;;;;;;5033649;28;20255;-75
2021/03/23 05:46:04;;;;;;;28.20;16.90;;;-1.10;99.90;;;;;;5034496;28;20286;-76
2021/03/23 05:48:35;;;;;;;28.30;17.07;;;-1.10;99.90;;;;;;5034114;28;20228;-75
2021/03/23 05:51:10;;;;;;;31.63;17.17;;;-1.10;99.90;;;;;;5048667;28;20297;-75
2021/03/23 05:53:42;;;;;;;33.90;18.10;;;-1.10;99.90;;;;;;5053814;28;20200;-76
2021/03/23 05:56:09;;;;;;;35.50;18.60;;;-0.90;99.90;;;;;;5053388;28;20232;-76
2021/03/23 05:58:40;;;;;;;37.63;18.97;;;-0.80;99.90;;;;;;5053118;28;20231;-75
2021/03/23 06:01:15;;;;;;;32.73;19.47;;;-0.70;99.90;;;;;;5044433;28;20653;-76
2021/03/23 06:03:46;;;;;;;33.93;19.37;;;-0.70;99.90;;;;;;5041488;28;20224;-75
2021/03/23 06:06:23;;;;;;;33.43;18.63;;;-0.70;99.90;;;;;;5035032;28;20280;-77
2021/03/23 06:08:50;;;;;;;33.87;18.53;;;-0.70;99.90;;;;;;5053130;28;20357;-76
2021/03/23 06:11:40;;;;;;;37.17;19.23;;;-0.70;99.90;;;;;;5053476;28;20196;-77
2021/03/23 06:14:27;;;;;;;30.10;17.63;;;-0.60;99.90;;;;;;5020436;28;20219;-76
2021/03/23 06:17:06;;;;;;;31.27;18.60;;;-0.50;99.90;;;;;;5052820;28;20700;-76
2021/03/23 06:19:43;;;;;;;31.57;18.80;;;-0.40;99.90;;;;;;5051048;28;20334;-77
2021/03/23 06:22:22;;;;;;;36.17;20.10;;;-0.30;99.90;;;;;;5052992;28;20263;-75
2021/03/23 06:24:59;;;;;;;34.27;19.67;;;-0.10;99.90;;;;;;5053533;28;20203;-77
2021/03/23 06:27:34;;;;;;;36.10;19.93;;;0.00;99.90;;;;;;5053330;28;20195;-77
2021/03/23 06:30:28;;;;;;;36.73;18.80;;;0.20;99.90;;;;;;5053412;28;20293;-79
2021/03/23 06:32:57;;;;;;;32.43;19.73;;;0.40;99.90;;;;;;5051599;28;20584;-76
2021/03/23 06:35:28;;;;;;;32.63;19.50;;;0.60;99.90;;;;;;5047226;28;20362;-75
2021/03/23 06:37:58;;;;;;;30.40;18.40;;;0.70;99.90;;;;;;5042583;28;20251;-76
2021/03/23 06:40:27;;;;;;;32.73;19.23;;;0.90;99.90;;;;;;5035787;28;20237;-76
2021/03/23 06:42:55;;;;;;;35.90;19.33;;;1.00;99.90;;;;;;5047305;28;20285;-75
2021/03/23 06:45:31;;;;;;;33.70;19.10;;;1.20;99.90;;;;;;5050306;28;20206;-75
2021/03/23 06:48:20;;;;;;;30.07;18.37;;;1.40;99.90;;;;;;5052097;28;20255;-74
2021/03/23 06:50:47;;;;;;;30.03;18.50;;;1.60;99.90;;;;;;5046350;28;20209;-75
2021/03/23 06:53:16;;;;;;;33.60;19.80;;;2.00;99.90;;;;;;5047210;28;20230;-75
2021/03/23 06:55:45;;;;;;;32.37;18.83;;;2.40;99.90;;;;;;5050338;28;20246;-75
2021/03/23 06:58:30;;;;;;;29.63;19.23;;;3.10;99.90;;;;;;5051078;28;20200;-75
2021/03/23 07:01:27;;;;;;;32.23;18.53;;;3.90;99.90;;;;;;5051064;28;20254;-75
2021/03/23 07:03:56;;;;;;;32.07;17.30;;;4.60;99.90;;;;;;5050903;28;20211;-75
2021/03/23 07:06:31;;;;;;;25.10;17.00;;;5.20;99.90;;;;;;5034218;28;20231;-76
2021/03/23 07:09:06;;;;;;;25.17;16.70;;;5.80;99.90;;;;;;5052062;28;20231;-77
2021/03/23 07:11:50;;;;;;;26.27;16.77;;;6.10;99.90;;;;;;5052168;28;20672;-78
2021/03/23 07:14:26;;;;;;;26.13;15.83;;;6.30;99.90;;;;;;5051239;28;20196;-77
2021/03/23 07:17:01;;;;;;;25.53;15.60;;;7.10;99.90;;;;;;5048322;28;20225;-78
2021/03/23 07:19:29;;;;;;;27.20;16.23;;;7.20;99.90;;;;;;5032571;28;20236;-77
2021/03/23 07:22:03;;;;;;;23.23;15.27;;;7.50;99.90;;;;;;5036563;28;20267;-77
2021/03/23 07:24:31;;;;;;;21.00;14.97;;;8.00;99.90;;;;;;5043327;28;20211;-77
2021/03/23 07:27:03;;;;;;;22.23;14.93;;;8.10;99.90;;;;;;5039886;28;20208;-78
2021/03/23 07:29:33;;;;;;;24.27;15.57;;;8.50;99.90;;;;;;5041498;28;20210;-77
2021/03/23 07:32:09;;;;;;;24.67;14.93;;;8.70;99.90;;;;;;5050275;28;20237;-77
2021/03/23 07:34:56;;;;;;;22.10;15.07;;;8.70;99.90;;;;;;5050779;28;20203;-78
2021/03/23 07:37:28;;;;;;;25.43;15.23;;;9.00;99.90;;;;;;5036065;28;20235;-78
2021/03/23 07:39:59;;;;;;;23.27;14.83;;;9.00;99.90;;;;;;5045934;28;20234;-79
2021/03/23 07:42:30;;;;;;;21.87;14.67;;;9.90;99.90;;;;;;5051786;28;20307;-79
2021/03/23 07:45:01;;;;;;;20.83;14.87;;;9.00;99.90;;;;;;5052688;28;20307;-79
2021/03/23 07:47:35;;;;;;;20.83;14.77;;;9.50;99.90;;;;;;5051971;28;20295;-79
2021/03/23 07:50:12;;;;;;;19.53;14.27;;;10.00;99.90;;;;;;5057539;28;20271;-79
2021/03/23 07:52:46;;;;;;;21.83;14.60;;;10.80;99.90;;;;;;5051357;28;20710;-79
2021/03/23 07:55:19;;;;;;;19.80;14.20;;;11.60;99.90;;;;;;5051947;28;20211;-80
2021/03/23 07:58:02;;;;;;;22.70;14.60;;;11.60;99.90;;;;;;5051425;28;20235;-78
2021/03/23 08:00:55;;;;;;;22.47;14.03;;;11.00;99.90;;;;;;5017543;28;20684;-79
2021/03/23 08:04:06;;;;;;;26.23;14.17;;;11.70;99.90;;;;;;5034655;28;20258;-79
2021/03/23 08:06:55;;;;;;;18.23;12.73;;;11.80;99.90;;;;;;5015540;28;20203;-79
2021/03/23 08:09:55;;;;;;;19.23;13.07;;;11.60;99.90;;;;;;5051630;28;20211;-79
2021/03/23 08:12:48;;;;;;;18.50;13.10;;;12.20;99.90;;;;;;5008102;28;20197;-78
2021/03/23 08:15:44;;;;;;;19.02;13.07;;;12.90;99.90;;;;;;5010461;28;20232;-79
2021/03/23 08:18:31;;;;;;;18.90;13.52;;;13.60;99.90;;;;;;4930890;29;20964;-79
2021/03/23 08:21:42;;;;;;;18.15;12.75;;;13.40;99.90;;;;;;4951120;29;20258;-79
2021/03/23 08:24:19;;;;;;;20.45;14.00;;;13.60;99.90;;;;;;4907426;29;20203;-79
2021/03/23 08:27:06;;;;;;;15.43;11.07;;;13.40;99.90;;;;;;4952040;29;20238;-80
2021/03/23 08:29:40;;;;;;;16.45;10.25;;;13.00;99.90;;;;;;4950968;29;20206;-79
2021/03/23 08:32:13;;;;;;;15.57;9.88;;;12.00;99.90;;;;;;4951853;29;20231;-80
2021/03/23 08:35:08;;;;;;;15.13;9.50;;;11.10;99.90;;;;;;4951378;29;20203;-80
2021/03/23 08:38:21;;;;;;;13.23;9.00;;;9.80;99.90;;;;;;4933839;29;20243;-79
2021/03/23 08:41:00;;;;;;;14.87;9.57;;;10.10;99.90;;;;;;4893865;29;20199;-79
2021/03/23 08:43:34;;;;;;;15.93;9.13;;;9.70;99.90;;;;;;4939777;29;20228;-79
2021/03/23 08:46:05;;;;;;;18.17;10.23;;;10.10;99.90;;;;;;4946667;29;20305;-81
2021/03/23 08:48:48;;;;;;;16.33;9.20;;;9.70;99.90;;;;;;4937731;29;20203;-80
2021/03/23 08:51:20;;;;;;;15.03;8.27;;;9.70;99.90;;;;;;4956600;28;20195;-81
2021/03/23 08:53:54;;;;;;;15.83;9.80;;;10.00;99.90;;;;;;4971629;28;20202;-81
2021/03/23 08:56:57;;;;;;;14.13;9.27;;;10.50;99.90;;;;;;5046110;28;20199;-80
2021/03/23 08:59:57;;;;;;;15.57;9.23;;;9.70;99.90;;;;;;5053144;28;20199;-80
2021/03/23 09:02:41;;;;;;;14.87;9.60;;;9.90;99.90;;;;;;4990823;28;20770;-81
2021/03/23 09:05:44;;;;;;;16.43;10.17;;;10.20;99.90;;;;;;4991171;28;20569;-81
2021/03/23 09:08:26;;;;;;;15.50;9.63;;;11.10;99.90;;;;;;4985427;28;20202;-81
2021/03/23 09:10:58;;;;;;;16.03;10.03;;;11.90;99.90;;;;;;4991944;28;20218;-81
2021/03/23 09:14:15;;;;;;;16.83;9.80;;;11.70;99.90;;;;;;4995458;28;20249;-81
2021/03/23 09:17:17;;;;;;;13.97;9.90;;;11.90;99.90;;;;;;4984707;28;20210;-82
2021/03/23 09:19:53;;;;;;;14.97;10.13;;;12.10;99.90;;;;;;4975414;28;20224;-81
2021/03/23 09:22:42;;;;;;;17.70;10.47;;;12.30;99.90;;;;;;4974574;28;20225;-82
2021/03/23 09:25:51;;;;;;;17.00;11.03;;;11.80;99.90;;;;;;4987593;28;20710;-82
2021/03/23 09:28:52;;;;;;;17.53;11.13;;;11.50;99.90;;;;;;4994841;28;20198;-82
2021/03/23 09:32:03;;;;;;;17.47;10.77;;;11.70;99.90;;;;;;4994626;28;20202;-82
2021/03/23 09:35:09;;;;;;;18.47;11.03;;;12.10;99.90;;;;;;5051972;28;20196;-82
2021/03/23 09:37:39;;;;;;;16.13;9.90;;;11.80;99.90;;;;;;5054872;28;20195;-81
2021/03/23 09:40:39;;;;;;;18.37;10.97;;;12.80;99.90;;;;;;5055415;28;20715;-83
2021/03/23 09:43:26;;;;;;;19.00;11.27;;;12.70;99.90;;;;;;5038633;28;20236;-82
2021/03/23 09:46:15;;;;;;;18.30;11.50;;;11.30;99.90;;;;;;5035921;28;20204;-81
2021/03/23 09:48:53;;;;;;;21.07;12.40;;;13.30;99.90;;;;;;4974901;28;20253;-82
2021/03/23 09:51:44;;;;;;;17.60;10.93;;;14.30;99.90;;;;;;4978611;28;20697;-82
2021/03/23 09:54:27;;;;;;;15.90;12.20;;;13.40;99.90;;;;;;4983064;28;20206;-82
2021/03/23 09:56:55;;;;;;;23.53;12.30;;;11.20;99.90;;;;;;4981942;28;20232;-82
2021/03/23 09:59:26;;;;;;;17.63;11.50;;;12.00;99.90;;;;;;4992303;28;20233;-82
2021/03/23 10:02:00;;;;;;;18.60;12.07;;;12.30;99.90;;;;;;4992892;28;20233;-82
2021/03/23 10:04:30;;;;;;;18.27;11.53;;;13.00;99.90;;;;;;4976340;28;20201;-82
2021/03/23 10:06:57;;;;;;;22.13;12.70;;;13.00;99.90;;;;;;4973971;28;20654;-82
2021/03/23 10:09:27;;;;;;;21.60;12.23;;;12.10;99.90;;;;;;4957069;28;20891;-82
2021/03/23 10:11:53;;;;;;;19.30;11.07;;;12.60;99.90;;;;;;4973300;28;20214;-82
2021/03/23 10:14:32;;;;;;;19.27;11.30;;;11.70;99.90;;;;;;4972976;28;21055;-83
2021/03/23 10:17:07;;;;;;;17.17;11.40;;;12.30;99.90;;;;;;4972258;28;20227;-81
2021/03/23 10:19:37;;;;;;;16.30;10.20;;;12.70;99.90;;;;;;4974886;28;20201;-82
2021/03/23 10:22:10;;;;;;;14.90;10.40;;;10.80;99.90;;;;;;4971603;28;20237;-82
2021/03/23 10:24:40;;;;;;;22.20;11.50;;;11.60;99.90;;;;;;4973913;28;20289;-82
2021/03/23 10:27:22;;;;;;;19.83;11.70;;;11.60;99.90;;;;;;5050451;28;20249;-82
2021/03/23 10:30:08;;;;;;;15.57;10.90;;;13.90;99.90;;;;;;5033762;28;20644;-82
2021/03/23 10:32:45;;;;;;;19.00;11.17;;;13.30;99.90;;;;;;5050974;28;20206;-83
2021/03/23 10:35:17;;;;;;;18.30;11.07;;;13.30;99.90;;;;;;5053111;28;20231;-82
2021/03/23 10:37:45;;;;;;;18.37;11.23;;;12.10;99.90;;;;;;5052488;28;20260;-82
2021/03/23 10:40:43;;;;;;;18.10;11.47;;;11.80;99.90;;;;;;5044504;28;20200;-82
2021/03/23 10:43:13;;;;;;;17.03;11.23;;;11.50;99.90;;;;;;4968861;28;20222;-82
2021/03/23 10:45:43;;;;;;;18.57;11.20;;;13.70;99.90;;;;;;4956342;28;20665;-82
2021/03/23 10:48:18;;;;;;;18.57;11.80;;;14.00;99.90;;;;;;4971431;28;20272;-82
2021/03/23 10:50:47;;;;;;;18.37;11.33;;;12.80;99.90;;;;;;4971483;28;20222;-82
2021/03/23 10:53:19;;;;;;;17.73;11.47;;;12.10;99.90;;;;;;4955236;28;20214;-83
2021/03/23 10:55:49;;;;;;;18.47;11.57;;;12.50;99.90;;;;;;4952848;28;20207;-82
2021/03/23 10:58:18;;;;;;;18.77;11.70;;;13.60;99.90;;;;;;4942253;28;20237;-82
2021/03/23 11:00:46;;;;;;;16.53;11.13;;;13.90;99.90;;;;;;4955537;28;20232;-82
2021/03/23 11:03:28;;;;;;;21.67;12.30;;;14.10;99.90;;;;;;4962874;28;20262;-82
2021/03/23 11:05:55;;;;;;;19.63;12.07;;;14.90;99.90;;;;;;4952846;29;20226;-83
2021/03/23 11:08:21;;;;;;;18.97;12.00;;;13.50;99.90;;;;;;4952296;29;20202;-83
2021/03/23 11:10:49;;;;;;;15.43;11.10;;;14.50;99.90;;;;;;4968820;28;20222;-83
2021/03/23 11:13:18;;;;;;;17.97;11.77;;;14.40;99.90;;;;;;4970963;28;20273;-83
2021/03/23 11:15:46;;;;;;;19.03;12.00;;;13.70;99.90;;;;;;4971498;28;20213;-83
2021/03/23 11:18:28;;;;;;;16.63;11.23;;;14.60;99.90;;;;;;5038458;28;20224;-84
2021/03/23 11:20:56;;;;;;;16.83;11.43;;;13.70;99.90;;;;;;5033770;28;20200;-83
2021/03/23 11:23:41;;;;;;;19.97;11.80;;;13.60;99.90;;;;;;5052040;28;20289;-83
2021/03/23 11:26:11;;;;;;;17.67;11.73;;;14.20;99.90;;;;;;5051147;28;20272;-83
2021/03/23 11:28:37;;;;;;;16.80;10.87;;;14.60;99.90;;;;;;5031528;28;20200;-83
2021/03/23 11:31:05;;;;;;;17.67;10.80;;;15.20;99.90;;;;;;5046045;28;20204;-84
2021/03/23 11:33:33;;;;;;;14.73;11.53;;;16.10;99.90;;;;;;5050756;28;20669;-83
2021/03/23 11:36:00;;;;;;;15.97;11.07;;;15.30;99.90;;;;;;5051933;28;20570;-83
2021/03/23 11:38:28;;;;;;;16.70;11.73;;;13.70;99.90;;;;;;5051520;28;20703;-83
2021/03/23 11:40:56;;;;;;;18.07;11.37;;;15.10;99.90;;;;;;5045651;28;20655;-83
2021/03/23 11:43:32;;;;;;;15.80;10.77;;;15.90;99.90;;;;;;5051373;28;20262;-84
2021/03/23 11:46:08;;;;;;;15.63;10.83;;;14.90;99.90;;;;;;5033373;28;20199;-83
2021/03/23 11:48:36;;;;;;;18.17;12.07;;;14.30;99.90;;;;;;5051245;28;20694;-83
2021/03/23 11:51:03;;;;;;;18.90;11.53;;;13.70;99.90;;;;;;5034413;28;20192;-83
2021/03/23 11:53:31;;;;;;;17.97;11.70;;;13.60;99.90;;;;;;5050496;28;20196;-83
2021/03/23 11:55:58;;;;;;;18.57;11.80;;;14.00;99.90;;;;;;5052354;28;20298;-83
2021/03/23 11:58:26;;;;;;;15.80;11.67;;;15.50;99.90;;;;;;5042625;28;20299;-83
2021/03/23 12:00:53;;;;;;;17.40;12.23;;;16.50;99.90;;;;;;5041228;28;20204;-83
2021/03/23 12:03:20;;;;;;;20.33;12.37;;;14.20;99.90;;;;;;5043613;28;20219;-82
2021/03/23 12:05:47;;;;;;;16.40;11.17;;;13.60;99.90;;;;;;5051686;28;20268;-84
2021/03/23 12:08:44;;;;;;;19.67;12.40;;;13.70;99.90;;;;;;5051528;28;20261;-83
2021/03/23 12:11:21;;;;;;;16.70;11.03;;;14.10;99.90;;;;;;5026016;28;20201;-82
2021/03/23 12:14:05;;;;;;;16.57;10.70;;;15.10;99.90;;;;;;5051633;28;20224;-82
2021/03/23 12:16:37;;;;;;;18.60;11.63;;;15.80;99.90;;;;;;5051400;28;20285;-83
2021/03/23 12:19:08;;;;;;;19.30;12.43;;;14.60;99.90;;;;;;5051730;28;20208;-81
2021/03/23 12:21:35;;;;;;;16.10;11.93;;;13.10;99.90;;;;;;5051177;28;20199;-81
2021/03/23 12:24:02;;;;;;;16.77;11.50;;;14.00;99.90;;;;;;5051803;28;20273;-82
2021/03/23 12:26:29;;;;;;;18.53;11.60;;;16.30;99.90;;;;;;5043593;28;20208;-82
2021/03/23 12:28:56;;;;;;;17.53;11.53;;;16.30;99.90;;;;;;5042649;28;20246;-82
2021/03/23 12:31:22;;;;;;;17.17;12.03;;;14.20;99.90;;;;;;5051975;28;20244;-82
2021/03/23 12:33:49;;;;;;;18.43;11.47;;;13.70;99.90;;;;;;5051341;28;20698;-82
2021/03/23 12:36:17;;;;;;;16.53;11.97;;;15.40;99.90;;;;;;5051017;28;20540;-83
2021/03/23 12:38:48;;;;;;;16.93;11.00;;;15.70;99.90;;;;;;5051898;28;20192;-82
2021/03/23 12:41:16;;;;;;;19.33;11.83;;;15.30;99.90;;;;;;5049445;28;20749;-82
2021/03/23 12:43:43;;;;;;;18.00;11.13;;;14.30;99.90;;;;;;5051237;28;20251;-83
2021/03/23 12:46:11;;;;;;;19.40;11.03;;;14.80;99.90;;;;;;5039469;28;20234;-82
2021/03/23 12:48:38;;;;;;;17.00;11.60;;;15.20;99.90;;;;;;5055080;28;20671;-81
2021/03/23 12:51:05;;;;;;;17.13;11.20;;;14.60;99.90;;;;;;5054962;28;20200;-82
2021/03/23 12:53:33;;;;;;;14.93;10.57;;;15.00;99.90;;;;;;5054455;28;20231;-82
2021/03/23 12:56:00;;;;;;;17.83;11.50;;;15.10;99.90;;;;;;5052101;28;20636;-83
2021/03/23 12:58:31;;;;;;;17.10;10.83;;;16.50;99.90;;;;;;5035152;28;20232;-82